Time;durP1;ratioP1;P1;durP2;ratioP2;P2;SDS_P1;SDS_P2;PMS_P1;PMS_P2;Temp;Humidity;BMP_temperature;BMP_pressure;BME280_temperature;BME280_humidity;BME280_pressure;Samples;Min_cycle;Max_cycle;Signal;HPM_P1;HPM_P2
2022/08/25 00:01:23;;;;;;;4.90;2.80;;;;;;;16.93;79.54;97430.56;5046290;28;20551;-60
2022/08/25 00:03:56;;;;;;;5.25;2.60;;;;;;;17.02;79.06;97437.03;5046268;28;20037;-59
2022/08/25 00:06:23;;;;;;;4.47;2.75;;;;;;;16.94;78.91;97435.75;5055164;28;20047;-59
2022/08/25 00:08:50;;;;;;;4.70;3.05;;;;;;;16.76;79.16;97431.84;5062078;28;20045;-59
2022/08/25 00:11:22;;;;;;;4.05;2.42;;;;;;;16.58;80.23;97434.25;5045727;28;20041;-59
2022/08/25 00:13:55;;;;;;;4.63;2.80;;;;;;;16.49;81.25;97420.41;5043806;28;20720;-60
2022/08/25 00:16:22;;;;;;;6.53;2.72;;;;;;;16.57;80.34;97420.88;5058351;28;20074;-60
2022/08/25 00:18:54;;;;;;;4.97;2.97;;;;;;;16.45;81.36;97418.53;5060995;28;20048;-60
2022/08/25 00:21:21;;;;;;;7.70;3.08;;;;;;;16.47;81.32;97419.06;5045823;28;20056;-59
2022/08/25 00:23:48;;;;;;;6.05;2.97;;;;;;;16.54;80.90;97416.78;5055021;28;20114;-59
2022/08/25 00:26:15;;;;;;;4.18;3.00;;;;;;;16.61;80.67;97421.91;5046439;28;20049;-59
2022/08/25 00:28:43;;;;;;;5.57;3.15;;;;;;;16.69;80.04;97426.75;5044970;28;20483;-59
2022/08/25 00:31:16;;;;;;;5.95;3.25;;;;;;;16.65;79.66;97422.97;5038594;28;20041;-60
2022/08/25 00:33:45;;;;;;;6.25;3.00;;;;;;;16.35;81.35;97428.47;5045053;28;20507;-59
2022/08/25 00:36:11;;;;;;;4.60;3.10;;;;;;;16.23;82.06;97430.78;5038275;28;20037;-59
2022/08/25 00:38:39;;;;;;;6.68;3.13;;;;;;;16.16;82.52;97435.75;5043022;28;20550;-59
2022/08/25 00:41:06;;;;;;;5.15;3.38;;;;;;;15.94;83.41;97435.13;5038233;28;20048;-58
2022/08/25 00:43:57;;;;;;;6.82;3.38;;;;;;;15.95;83.72;97430.47;5045339;28;20091;-58
2022/08/25 00:46:36;;;;;;;5.20;3.42;;;;;;;15.97;83.16;97431.81;5048863;28;20037;-59
2022/08/25 00:49:08;;;;;;;5.93;3.17;;;;;;;15.98;83.38;97427.16;5044966;28;20036;-58
2022/08/25 00:51:50;;;;;;;4.50;2.75;;;;;;;16.05;83.25;97427.66;5060051;28;20060;-58
2022/08/25 00:54:21;;;;;;;5.05;3.10;;;;;;;15.94;83.56;97428.81;5045758;28;20041;-58
2022/08/25 00:56:50;;;;;;;4.88;3.20;;;;;;;15.79;83.76;97424.28;5045506;28;20087;-59
2022/08/25 00:59:19;;;;;;;4.53;2.72;;;;;;;15.92;83.47;97422.84;5045285;28;20048;-58
2022/08/25 01:01:48;;;;;;;5.68;2.60;;;;;;;16.01;83.01;97425.78;5045398;28;20103;-59
2022/08/25 01:04:16;;;;;;;5.05;2.80;;;;;;;15.92;82.90;97417.38;5048788;28;20048;-58
2022/08/25 01:06:43;;;;;;;5.63;3.03;;;;;;;15.94;83.10;97420.63;5049800;28;20045;-60
2022/08/25 01:09:12;;;;;;;4.43;2.90;;;;;;;15.83;83.24;97419.88;5049077;28;20040;-60
2022/08/25 01:11:43;;;;;;;5.18;3.55;;;;;;;15.63;84.56;97429.88;5049816;28;20045;-58
2022/08/25 01:14:13;;;;;;;4.40;3.15;;;;;;;15.60;84.55;97419.50;5041792;28;20562;-58
2022/08/25 01:16:42;;;;;;;5.40;3.38;;;;;;;15.64;84.67;97415.13;5047939;28;20037;-59
2022/08/25 01:19:11;;;;;;;5.43;3.28;;;;;;;15.51;85.13;97419.28;5050767;28;20053;-59
2022/08/25 01:21:45;;;;;;;5.50;3.13;;;;;;;15.60;84.81;97420.31;5054791;28;20231;-59
2022/08/25 01:24:22;;;;;;;5.82;3.00;;;;;;;15.70;84.42;97424.09;5049649;28;20621;-58
2022/08/25 01:26:49;;;;;;;5.35;3.25;;;;;;;15.68;84.89;97420.81;5065961;28;20044;-59
2022/08/25 01:29:21;;;;;;;4.13;2.78;;;;;;;15.61;84.86;97418.41;5057041;28;20098;-59
2022/08/25 01:31:51;;;;;;;4.30;2.70;;;;;;;15.61;84.91;97415.69;5057646;28;20098;-59
2022/08/25 01:34:19;;;;;;;5.13;3.47;;;;;;;15.55;85.11;97417.63;5063812;28;20044;-59
2022/08/25 01:36:45;;;;;;;5.72;2.78;;;;;;;15.62;84.57;97421.97;5056077;28;20565;-59
2022/08/25 01:39:12;;;;;;;4.90;3.50;;;;;;;15.46;85.15;97427.50;5063844;28;20461;-59
2022/08/25 01:42:10;;;;;;;4.25;2.88;;;;;;;15.54;85.51;97432.38;5049366;28;20103;-59
2022/08/25 01:44:43;;;;;;;5.05;3.20;;;;;;;15.62;84.79;97427.41;5050153;28;20041;-57
2022/08/25 01:47:10;;;;;;;4.85;3.00;;;;;;;15.62;84.62;97433.69;5055363;28;20036;-58
2022/08/25 01:49:36;;;;;;;6.45;3.35;;;;;;;15.61;85.02;97432.06;5056129;28;20048;-58
2022/08/25 01:52:22;;;;;;;4.30;2.80;;;;;;;15.61;84.82;97429.31;5048407;28;20045;-58
2022/08/25 01:54:49;;;;;;;4.68;3.10;;;;;;;15.59;84.75;97432.34;5045267;28;20060;-59
2022/08/25 01:57:15;;;;;;;4.20;3.15;;;;;;;15.45;84.75;97434.88;5047181;28;20052;-58
2022/08/25 01:59:43;;;;;;;5.10;3.28;;;;;;;15.28;86.23;97438.00;5037136;28;20045;-57
2022/08/25 02:02:10;;;;;;;5.63;3.22;;;;;;;15.27;86.57;97433.63;5056242;28;20037;-59
2022/08/25 02:04:38;;;;;;;5.00;3.20;;;;;;;15.29;86.33;97436.09;5054622;28;20048;-58
2022/08/25 02:07:07;;;;;;;5.75;3.70;;;;;;;15.27;85.89;97438.25;5048506;28;20586;-58
2022/08/25 02:09:35;;;;;;;5.57;3.20;;;;;;;15.27;86.04;97444.56;5057097;28;20463;-57
2022/08/25 02:12:02;;;;;;;7.28;3.17;;;;;;;15.37;85.61;97438.19;5047667;28;20103;-58
2022/08/25 02:14:29;;;;;;;4.82;3.03;;;;;;;15.48;84.82;97442.50;5052771;28;20047;-59
2022/08/25 02:16:56;;;;;;;4.60;2.72;;;;;;;15.60;84.05;97442.16;5068481;28;20040;-58
2022/08/25 02:19:24;;;;;;;5.68;3.38;;;;;;;15.59;84.40;97439.72;5061008;28;20051;-58
2022/08/25 02:21:51;;;;;;;6.65;2.88;;;;;;;15.65;83.69;97441.31;5059745;28;20049;-59
2022/08/25 02:24:17;;;;;;;5.15;3.13;;;;;;;15.62;83.85;97441.06;5062793;28;20060;-58
2022/08/25 02:26:44;;;;;;;5.68;3.08;;;;;;;15.62;84.04;97441.06;5061434;28;20516;-58
2022/08/25 02:29:11;;;;;;;5.50;2.92;;;;;;;15.54;84.39;97437.84;5061500;28;20044;-58
2022/08/25 02:31:38;;;;;;;5.57;3.67;;;;;;;15.44;85.03;97432.44;5050263;28;20048;-59
2022/08/25 02:34:07;;;;;;;5.10;3.05;;;;;;;15.36;85.24;97430.31;5064126;28;20467;-58
2022/08/25 02:36:34;;;;;;;4.90;3.15;;;;;;;15.23;86.06;97427.13;5049540;28;21685;-59
2022/08/25 02:39:02;;;;;;;5.05;3.45;;;;;;;15.16;86.50;97429.31;5064411;28;20082;-59
2022/08/25 02:41:29;;;;;;;6.53;3.65;;;;;;;15.26;86.22;97420.28;5046220;28;20041;-58
2022/08/25 02:43:59;;;;;;;6.10;3.33;;;;;;;15.34;85.22;97419.69;5044862;28;20041;-58
2022/08/25 02:46:26;;;;;;;4.97;3.17;;;;;;;15.32;85.28;97419.97;5056814;28;20049;-59
2022/08/25 02:48:54;;;;;;;8.45;3.58;;;;;;;15.30;85.10;97422.13;5046543;28;20052;-58
2022/08/25 02:51:23;;;;;;;4.90;3.30;;;;;;;15.23;85.34;97415.38;5049937;28;20040;-58
2022/08/25 02:53:50;;;;;;;5.32;3.13;;;;;;;15.11;86.33;97423.91;5047714;28;20095;-59
2022/08/25 02:56:18;;;;;;;5.22;3.13;;;;;;;15.18;85.51;97425.22;5049476;28;20057;-59
2022/08/25 02:58:45;;;;;;;5.93;3.38;;;;;;;15.15;85.70;97428.50;5047490;28;20528;-58
2022/08/25 03:01:13;;;;;;;5.22;3.10;;;;;;;15.17;86.00;97431.78;5044778;28;20686;-59
2022/08/25 03:03:43;;;;;;;6.22;3.70;;;;;;;15.20;85.34;97428.50;5046258;28;20033;-59
2022/08/25 03:06:11;;;;;;;4.88;3.38;;;;;;;15.22;85.16;97428.19;5054546;28;20044;-58
2022/08/25 03:08:40;;;;;;;5.50;3.00;;;;;;;15.36;84.20;97420.19;5047491;28;20475;-58
2022/08/25 03:11:07;;;;;;;4.53;3.05;;;;;;;15.44;83.82;97419.59;5047679;28;20098;-58
2022/08/25 03:13:33;;;;;;;4.82;3.30;;;;;;;15.43;84.50;97417.97;5063607;28;20037;-59
2022/08/25 03:16:01;;;;;;;5.30;3.00;;;;;;;15.37;84.43;97421.03;5060328;28;20460;-59
2022/08/25 03:18:29;;;;;;;5.60;3.10;;;;;;;15.36;85.46;97419.41;5062072;28;20492;-58
2022/08/25 03:20:56;;;;;;;6.57;3.58;;;;;;;15.24;84.70;97412.38;5046998;28;20045;-58
2022/08/25 03:23:23;;;;;;;5.70;3.47;;;;;;;14.99;86.09;97416.84;5055396;28;20045;-58
2022/08/25 03:28:35;;;;;;;5.47;3.75;;;;;;;14.80;87.73;97419.38;5040210;28;20044;-58
2022/08/25 03:31:01;;;;;;;6.53;3.63;;;;;;;14.88;87.82;97427.00;5049328;28;20056;-59
2022/08/25 03:33:29;;;;;;;6.10;3.30;;;;;;;14.97;86.64;97424.50;5047409;28;20090;-59
2022/08/25 03:35:56;;;;;;;5.93;3.65;;;;;;;15.03;85.99;97422.56;5052122;28;20056;-58
2022/08/25 03:38:24;;;;;;;7.75;3.53;;;;;;;14.97;86.61;97412.78;5064601;28;20045;-59
2022/08/25 03:40:51;;;;;;;5.00;3.33;;;;;;;14.99;86.48;97413.31;5046199;28;20076;-58
2022/08/25 03:43:18;;;;;;;5.28;3.67;;;;;;;14.82;87.02;97400.84;5049215;28;20457;-59
2022/08/25 03:45:46;;;;;;;5.68;3.83;;;;;;;14.69;87.59;97408.50;5057184;28;20463;-59
2022/08/25 03:48:15;;;;;;;5.38;3.13;;;;;;;14.54;88.47;97401.19;5064849;28;20043;-59
2022/08/25 03:50:47;;;;;;;7.95;3.92;;;;;;;14.52;88.84;97397.13;5046141;28;20041;-58
2022/08/25 03:53:18;;;;;;;6.30;3.75;;;;;;;14.54;89.14;97401.19;5052718;28;20039;-59
2022/08/25 03:55:44;;;;;;;7.82;3.85;;;;;;;14.64;88.80;97407.69;5046553;28;20060;-60
2022/08/25 03:58:11;;;;;;;8.05;4.40;;;;;;;14.65;88.14;97404.69;5046338;28;20049;-60
2022/08/25 04:00:38;;;;;;;5.45;3.55;;;;;;;14.67;87.92;97398.97;5064872;28;20373;-58
2022/08/25 04:03:04;;;;;;;5.43;3.47;;;;;;;14.63;88.34;97393.25;5066376;28;20036;-59
2022/08/25 04:05:31;;;;;;;6.72;3.63;;;;;;;14.60;88.46;97399.28;5056902;28;20052;-59
2022/08/25 04:08:00;;;;;;;6.70;4.07;;;;;;;14.58;88.47;97393.28;5050537;28;20051;-59
2022/08/25 04:10:27;;;;;;;5.82;3.60;;;;;;;14.38;88.83;97396.88;5052692;28;20036;-58
2022/08/25 04:12:54;;;;;;;6.18;3.83;;;;;;;14.30;89.52;97406.44;5066589;28;20043;-58
2022/08/25 04:15:21;;;;;;;8.60;4.40;;;;;;;14.24;90.25;97405.63;5055162;28;20043;-59
2022/08/25 04:17:47;;;;;;;5.63;4.43;;;;;;;14.30;90.28;97407.25;5066301;28;20043;-58
2022/08/25 04:20:25;;;;;;;5.18;3.75;;;;;;;14.39;89.47;97406.69;5052003;28;20392;-57
2022/08/25 04:22:51;;;;;;;6.32;3.80;;;;;;;14.44;89.04;97407.50;5046186;28;20037;-59
2022/08/25 04:25:18;;;;;;;5.28;3.70;;;;;;;14.43;89.09;97400.41;5045493;28;20041;-59
2022/08/25 04:27:45;;;;;;;6.72;4.10;;;;;;;14.34;89.73;97407.50;5042297;28;20798;-57
2022/08/25 04:30:12;;;;;;;11.00;5.03;;;;;;;14.32;89.68;97404.25;5043549;28;20052;-59
2022/08/25 04:32:38;;;;;;;11.25;3.85;;;;;;;14.35;89.44;97411.03;5052409;28;20094;-58
2022/08/25 04:35:06;;;;;;;6.57;4.00;;;;;;;14.43;89.65;97411.31;5043632;28;20056;-59
2022/08/25 04:37:33;;;;;;;8.63;4.40;;;;;;;14.49;89.53;97414.81;5045386;28;20423;-58
2022/08/25 04:40:00;;;;;;;6.03;3.83;;;;;;;14.49;89.00;97403.13;5042090;28;20110;-55
2022/08/25 04:42:27;;;;;;;5.95;3.95;;;;;;;14.40;89.29;97411.84;5044001;28;20045;-56
2022/08/25 04:44:53;;;;;;;9.68;3.88;;;;;;;14.42;88.81;97412.38;5039695;28;20052;-54
2022/08/25 04:47:20;;;;;;;8.55;4.45;;;;;;;14.44;89.20;97414.84;5037403;28;20486;-56
2022/08/25 04:49:47;;;;;;;10.30;4.15;;;;;;;14.46;89.20;97411.84;5037375;28;20044;-63
2022/08/25 04:52:14;;;;;;;7.57;3.78;;;;;;;14.46;89.50;97414.56;5033435;28;20045;-63
2022/08/25 04:54:41;;;;;;;6.20;4.03;;;;;;;14.59;89.31;97424.88;5043929;28;20055;-63
2022/08/25 04:57:08;;;;;;;7.70;4.13;;;;;;;14.68;88.20;97428.66;5039387;28;20474;-63
2022/08/25 04:59:34;;;;;;;7.30;4.20;;;;;;;14.76;87.60;97426.47;5039576;28;20037;-63
2022/08/25 05:02:03;;;;;;;6.72;3.83;;;;;;;14.77;87.66;97425.38;5041926;28;20147;-63
2022/08/25 05:04:32;;;;;;;5.80;4.32;;;;;;;14.74;88.17;97425.94;5041527;28;20467;-63
2022/08/25 05:06:59;;;;;;;7.10;3.83;;;;;;;14.72;88.83;97419.94;5041090;28;20130;-63
2022/08/25 05:09:26;;;;;;;5.85;3.90;;;;;;;14.67;88.72;97416.13;5042247;28;20401;-63
2022/08/25 05:11:53;;;;;;;7.28;3.92;;;;;;;14.59;89.27;97408.53;5057198;28;20045;-63
2022/08/25 05:14:21;;;;;;;5.40;3.80;;;;;;;14.45;90.75;97416.47;5045253;28;20037;-63
2022/08/25 05:16:53;;;;;;;6.40;4.10;;;;;;;14.29;91.72;97402.88;5064593;28;20504;-63
2022/08/25 05:19:19;;;;;;;9.13;4.38;;;;;;;14.31;91.72;97400.69;5052749;28;20045;-62
2022/08/25 05:21:46;;;;;;;7.25;4.63;;;;;;;14.31;91.82;97400.69;5042940;28;20110;-62
2022/08/25 05:24:13;;;;;;;7.85;4.85;;;;;;;14.32;92.00;97398.78;5043027;28;20052;-63
2022/08/25 05:26:40;;;;;;;8.82;4.72;;;;;;;14.40;92.30;97405.56;5043178;28;20417;-63
2022/08/25 05:29:07;;;;;;;8.27;5.03;;;;;;;14.54;91.15;97403.09;5043122;28;20048;-63
2022/08/25 05:31:34;;;;;;;8.90;4.95;;;;;;;14.55;91.05;97397.38;5042978;28;20057;-63
2022/08/25 05:34:07;;;;;;;8.05;4.25;;;;;;;14.69;90.47;97396.78;5031877;28;20044;-63
2022/08/25 05:36:34;;;;;;;7.75;4.40;;;;;;;14.62;90.82;97398.97;5042761;28;20567;-63
2022/08/25 05:39:02;;;;;;;8.77;5.25;;;;;;;14.75;90.92;97394.84;5045560;28;20037;-63
2022/08/25 05:41:29;;;;;;;7.28;4.53;;;;;;;14.82;91.19;97390.75;5042537;28;20608;-63
2022/08/25 05:43:56;;;;;;;7.20;4.60;;;;;;;15.01;90.85;97386.59;5052538;28;20037;-63
2022/08/25 05:46:23;;;;;;;9.27;4.50;;;;;;;15.18;90.41;97387.03;5043050;28;20728;-63
2022/08/25 05:48:50;;;;;;;7.25;4.88;;;;;;;15.29;90.24;97385.06;5047658;28;20049;-63
2022/08/25 05:51:18;;;;;;;7.72;4.82;;;;;;;15.43;89.80;97387.16;5047125;28;20041;-63
2022/08/25 05:53:48;;;;;;;7.20;4.50;;;;;;;15.53;89.90;97391.72;5050549;28;20543;-63
2022/08/25 05:56:15;;;;;;;7.43;4.47;;;;;;;15.62;89.98;97394.69;5056644;28;20111;-63
2022/08/25 05:58:42;;;;;;;7.88;4.93;;;;;;;15.77;89.38;97391.00;5057414;28;20577;-63
2022/08/25 06:04:05;;;;;;;7.15;4.80;;;;;;;16.14;87.71;97394.25;5049603;28;20048;-63
2022/08/25 06:06:34;;;;;;;8.13;4.63;;;;;;;16.31;87.54;97388.34;5050691;28;20044;-63
2022/08/25 06:09:03;;;;;;;10.30;4.95;;;;;;;16.53;87.04;97393.31;5053131;28;20047;-63
2022/08/25 06:11:30;;;;;;;7.65;4.50;;;;;;;16.67;85.95;97393.44;5052030;28;20045;-63
2022/08/25 06:13:56;;;;;;;6.88;4.45;;;;;;;16.86;85.58;97396.22;5053259;28;20045;-63
2022/08/25 06:16:23;;;;;;;6.82;4.47;;;;;;;17.02;85.81;97396.00;5050463;28;20048;-63
2022/08/25 06:18:49;;;;;;;6.15;4.20;;;;;;;17.15;85.74;97394.50;5046085;28;20080;-63
2022/08/25 06:21:17;;;;;;;6.13;4.00;;;;;;;17.29;84.80;97392.63;5046635;28;20049;-63
2022/08/25 06:23:44;;;;;;;6.68;4.32;;;;;;;17.49;83.87;97387.16;5045960;28;20411;-63
2022/08/25 06:26:11;;;;;;;7.18;4.82;;;;;;;17.69;83.17;97396.97;5046106;28;20049;-63
2022/08/25 06:28:47;;;;;;;7.43;4.70;;;;;;;17.91;82.32;97396.34;5045654;28;20059;-63
2022/08/25 06:31:13;;;;;;;6.80;4.85;;;;;;;18.27;81.00;97394.13;5045894;28;20036;-63
2022/08/25 06:33:40;;;;;;;7.57;4.47;;;;;;;18.53;79.47;97391.72;5045351;28;20571;-63
2022/08/25 06:36:07;;;;;;;6.63;4.28;;;;;;;18.67;78.91;97390.91;5051289;28;20041;-63
2022/08/25 06:38:34;;;;;;;6.57;4.60;;;;;;;18.89;77.71;97390.19;5040174;28;20540;-64
2022/08/25 06:41:05;;;;;;;7.93;4.88;;;;;;;19.10;76.96;97387.84;5048182;28;20095;-64
2022/08/25 06:43:33;;;;;;;8.33;4.53;;;;;;;19.33;75.87;97395.31;5042813;28;20032;-61
2022/08/25 06:46:10;;;;;;;7.82;5.22;;;;;;;19.45;75.05;97386.53;5040475;28;20665;-60
2022/08/25 06:48:36;;;;;;;7.20;5.00;;;;;;;19.59;74.26;97392.00;5039537;28;20090;-61
2022/08/25 06:51:08;;;;;;;9.95;5.00;;;;;;;19.67;74.05;97390.44;5044416;28;20049;-62
2022/08/25 06:53:39;;;;;;;6.78;4.50;;;;;;;19.81;73.28;97384.88;5042378;28;20140;-60
2022/08/25 06:56:06;;;;;;;7.18;4.63;;;;;;;19.97;72.99;97385.31;5043284;28;20106;-60
2022/08/25 06:58:33;;;;;;;8.73;4.72;;;;;;;20.03;72.65;97375.84;5044322;28;20045;-60
2022/08/25 07:01:25;;;;;;;7.22;4.95;;;;;;;20.18;71.85;97379.31;5045463;28;20052;-59
2022/08/25 07:03:58;;;;;;;6.75;5.00;;;;;;;20.28;71.84;97368.84;5043613;28;20047;-59
2022/08/25 07:06:27;;;;;;;9.75;5.68;;;;;;;20.45;71.09;97369.25;5044651;28;20053;-61
2022/08/25 07:08:53;;;;;;;8.18;5.28;;;;;;;20.51;70.77;97365.22;5039396;28;20103;-59
2022/08/25 07:11:20;;;;;;;8.18;4.78;;;;;;;20.58;70.35;97368.34;5043492;28;20412;-59
2022/08/25 07:13:48;;;;;;;7.70;5.15;;;;;;;20.78;69.58;97360.63;5034877;28;20045;-59
2022/08/25 07:16:16;;;;;;;6.45;4.57;;;;;;;20.84;69.38;97358.53;5046186;28;20675;-60
2022/08/25 07:18:44;;;;;;;8.98;4.70;;;;;;;20.87;68.86;97350.50;5044310;28;20389;-60
2022/08/25 07:21:12;;;;;;;11.45;5.68;;;;;;;20.95;68.68;97356.31;5046632;28;20185;-62
2022/08/25 07:23:40;;;;;;;8.27;4.72;;;;;;;21.01;68.98;97344.81;5044814;28;20517;-59
2022/08/25 07:26:27;;;;;;;8.07;4.90;;;;;;;21.10;67.71;97350.34;5046550;28;20052;-60
2022/08/25 07:29:18;;;;;;;9.60;5.35;;;;;;;21.24;67.91;97352.16;5046044;28;20041;-60
2022/08/25 07:31:45;;;;;;;8.32;4.70;;;;;;;21.27;67.43;97351.50;5046300;28;20056;-60
2022/08/25 07:36:57;;;;;;;8.85;5.10;;;;;;;21.36;66.76;97357.00;5046383;28;20040;-63
2022/08/25 07:39:25;;;;;;;7.63;4.70;;;;;;;21.46;66.03;97351.19;5046424;28;20048;-61
2022/08/25 07:41:52;;;;;;;8.32;4.60;;;;;;;21.53;66.16;97357.00;5044713;28;20055;-61
2022/08/25 07:44:21;;;;;;;8.00;4.32;;;;;;;21.69;65.36;97351.00;5046645;28;20036;-60
2022/08/25 07:46:49;;;;;;;8.10;4.88;;;;;;;21.75;65.09;97346.97;5050935;28;20048;-60
2022/08/25 07:49:17;;;;;;;8.32;4.75;;;;;;;21.90;64.58;97353.94;5045765;28;20557;-62
2022/08/25 07:51:50;;;;;;;8.60;4.82;;;;;;;22.06;63.55;97348.69;5045867;28;20055;-60
2022/08/25 07:54:35;;;;;;;7.47;4.45;;;;;;;22.15;63.38;97353.38;5046335;28;20061;-62
2022/08/25 07:57:05;;;;;;;7.82;4.72;;;;;;;22.16;63.19;97353.06;5045852;28;20103;-60
2022/08/25 07:59:32;;;;;;;8.30;4.50;;;;;;;22.21;63.18;97349.28;5044491;28;20242;-59
2022/08/25 08:02:11;;;;;;;10.25;4.60;;;;;;;22.30;62.83;97360.31;5042673;28;20119;-60
2022/08/25 08:04:49;;;;;;;10.30;4.20;;;;;;;22.37;63.07;97355.06;5043961;28;20071;-60
2022/08/25 08:07:19;;;;;;;;;;;;;;;22.43;62.39;97348.25;5043335;28;20041;-60
2022/08/25 08:09:48;;;;;;;9.95;4.70;;;;;;;22.51;61.83;97357.59;5046639;28;19932;-62
2022/08/25 08:12:26;;;;;;;8.60;4.50;;;;;;;22.52;62.12;97353.69;5032265;28;20045;-63
2022/08/25 08:14:53;;;;;;;7.50;4.45;;;;;;;22.49;62.00;97354.38;5044793;28;20068;-63
2022/08/25 08:17:20;;;;;;;10.43;5.10;;;;;;;22.55;61.37;97357.81;5043693;28;20550;-62
2022/08/25 08:19:47;;;;;;;6.90;4.53;;;;;;;22.56;61.55;97356.66;5041483;28;20041;-60
2022/08/25 08:22:16;;;;;;;6.55;4.30;;;;;;;22.67;60.62;97366.16;5042891;28;20037;-60
2022/08/25 08:24:44;;;;;;;7.15;4.10;;;;;;;22.77;60.70;97362.22;5044028;28;20547;-59
2022/08/25 08:27:20;;;;;;;8.70;4.70;;;;;;;22.74;60.03;97357.38;5043619;28;20049;-59
2022/08/25 08:29:47;;;;;;;8.70;4.20;;;;;;;22.86;59.84;97359.41;5043426;28;20045;-60
2022/08/25 08:32:13;;;;;;;10.60;4.30;;;;;;;22.85;59.71;97357.81;5043951;28;20420;-60
2022/08/25 08:34:40;;;;;;;8.23;4.50;;;;;;;22.93;59.25;97364.41;5043099;28;20125;-59
2022/08/25 08:37:09;;;;;;;5.82;4.10;;;;;;;23.02;59.19;97354.13;5043449;28;20103;-62
2022/08/25 08:39:36;;;;;;;7.38;4.28;;;;;;;23.20;58.10;97352.03;5043627;28;20143;-61
2022/08/25 08:42:25;;;;;;;7.18;4.47;;;;;;;23.39;57.35;97350.78;5042412;28;20048;-61
2022/08/25 08:45:02;;;;;;;8.10;4.40;;;;;;;23.30;57.00;97353.59;5044908;28;20028;-60
2022/08/25 08:47:42;;;;;;;5.63;4.03;;;;;;;23.30;57.05;97347.25;5045763;28;20064;-59
2022/08/25 08:50:29;;;;;;;8.77;4.38;;;;;;;23.43;56.28;97348.97;5043734;28;20582;-63
2022/08/25 08:53:15;;;;;;;12.60;4.07;;;;;;;23.54;56.09;97346.59;5034580;28;20087;-63
2022/08/25 08:55:55;;;;;;;8.18;4.07;;;;;;;23.63;56.00;97347.31;5043632;28;20705;-60
2022/08/25 08:58:29;;;;;;;7.10;4.47;;;;;;;23.54;55.72;97349.38;5043015;28;20049;-59
2022/08/25 09:00:57;;;;;;;11.18;4.63;;;;;;;23.51;55.93;97348.09;5043502;28;20163;-60
2022/08/25 09:03:38;;;;;;;8.85;4.38;;;;;;;23.56;55.99;97351.78;5043411;28;20037;-60
2022/08/25 09:06:17;;;;;;;6.15;4.05;;;;;;;23.61;55.74;97351.56;5042671;28;20044;-59
2022/08/25 09:08:43;;;;;;;7.28;4.30;;;;;;;23.71;55.67;97353.13;5043051;28;20041;-58
2022/08/25 09:11:28;;;;;;;8.15;4.43;;;;;;;23.66;55.63;97348.59;5039736;28;20037;-64
2022/08/25 09:14:38;;;;;;;8.05;4.47;;;;;;;23.75;54.80;97340.22;5039835;28;20041;-60
2022/08/25 09:17:20;;;;;;;5.65;3.95;;;;;;;23.88;53.84;97338.34;5040143;28;20053;-60
2022/08/25 09:20:12;;;;;;;6.70;3.80;;;;;;;24.02;53.66;97336.06;5041774;28;20057;-60
2022/08/25 09:22:50;;;;;;;7.25;4.30;;;;;;;24.07;53.17;97337.81;5041242;28;20618;-63
2022/08/25 09:25:22;;;;;;;7.65;3.90;;;;;;;24.02;53.61;97338.81;5045751;28;20040;-60
2022/08/25 09:28:20;;;;;;;6.97;4.07;;;;;;;24.07;53.68;97331.44;5036949;28;20120;-60
2022/08/25 09:30:56;;;;;;;8.40;4.00;;;;;;;24.24;53.03;97338.75;5046450;28;20052;-60
2022/08/25 09:33:25;;;;;;;6.10;3.90;;;;;;;24.28;52.41;97334.97;5047109;28;20052;-62
2022/08/25 09:35:54;;;;;;;7.32;4.43;;;;;;;24.27;52.03;97335.31;5046220;28;20094;-62
2022/08/25 09:38:25;;;;;;;6.30;3.83;;;;;;;24.27;51.63;97322.28;5046893;28;20508;-59
2022/08/25 09:40:58;;;;;;;7.82;4.40;;;;;;;24.30;52.19;97318.03;5046474;28;20434;-62
2022/08/25 09:43:27;;;;;;;7.90;4.38;;;;;;;24.31;52.11;97319.63;5046851;28;20069;-66
2022/08/25 09:46:01;;;;;;;6.47;4.75;;;;;;;24.33;52.92;97314.59;5049978;28;20098;-62
2022/08/25 09:48:54;;;;;;;6.90;4.22;;;;;;;24.47;52.09;97305.91;5046063;28;20074;-62
2022/08/25 09:51:34;;;;;;;6.68;3.63;;;;;;;24.57;51.81;97315.72;5048126;28;20120;-70
2022/08/25 09:54:14;;;;;;;9.20;4.57;;;;;;;24.61;50.98;97315.84;5046630;28;20048;-62
2022/08/25 09:56:59;;;;;;;6.38;3.70;;;;;;;24.61;50.86;97313.88;5044438;28;20500;-63
2022/08/25 09:59:33;;;;;;;6.00;3.78;;;;;;;24.61;51.32;97308.34;5044251;28;20051;-65
2022/08/25 10:02:24;;;;;;;6.28;4.25;;;;;;;24.63;51.11;97299.69;5044136;28;20052;-65
2022/08/25 10:04:51;;;;;;;5.80;4.05;;;;;;;24.67;51.31;97295.91;5043998;28;20523;-66
2022/08/25 10:07:45;;;;;;;10.15;4.40;;;;;;;24.80;51.50;97296.69;5046051;28;20123;-63
2022/08/25 10:10:26;;;;;;;7.20;4.10;;;;;;;24.79;51.52;97302.56;5044906;28;20045;-65
2022/08/25 10:12:59;;;;;;;12.68;4.65;;;;;;;24.92;51.28;97297.84;5044755;28;20536;-65
2022/08/25 10:15:34;;;;;;;6.22;3.63;;;;;;;24.87;50.71;97289.78;5041720;28;20052;-65
2022/08/25 10:18:28;;;;;;;6.30;4.20;;;;;;;24.85;50.85;97292.91;5042988;28;20061;-65
2022/08/25 10:21:17;;;;;;;7.10;4.53;;;;;;;25.08;49.89;97286.84;5045796;28;20057;-65
2022/08/25 10:23:48;;;;;;;7.15;4.28;;;;;;;25.30;49.31;97287.47;5040614;28;20780;-65
2022/08/25 10:26:27;;;;;;;5.18;3.60;;;;;;;25.31;49.05;97287.13;5042368;28;20722;-60
2022/08/25 10:29:08;;;;;;;5.88;3.70;;;;;;;25.31;48.36;97289.06;5039427;28;20506;-60
2022/08/25 10:31:41;;;;;;;5.75;4.05;;;;;;;25.15;48.97;97287.06;5038241;28;20906;-62
2022/08/25 10:34:36;;;;;;;5.45;3.63;;;;;;;25.00;48.96;97274.75;5038596;28;20045;-63
2022/08/25 10:37:38;;;;;;;5.72;3.97;;;;;;;25.17;48.83;97276.41;5034519;28;20124;-63
2022/08/25 10:40:37;;;;;;;6.65;3.60;;;;;;;25.20;48.72;97266.59;5041284;28;20465;-61
2022/08/25 10:43:06;;;;;;;12.38;4.40;;;;;;;25.17;48.41;97270.09;5044527;28;20688;-61
2022/08/25 10:45:50;;;;;;;10.00;4.00;;;;;;;25.29;47.99;97260.91;5034896;28;20661;-60
2022/08/25 10:48:38;;;;;;;5.13;3.63;;;;;;;25.46;47.75;97255.06;5045091;28;20557;-60
2022/08/25 10:51:28;;;;;;;5.95;3.45;;;;;;;25.67;46.82;97251.28;5045152;28;20059;-59
2022/08/25 10:54:18;;;;;;;5.90;3.53;;;;;;;25.78;46.16;97243.25;5045901;28;20052;-60
2022/08/25 10:57:29;;;;;;;7.57;3.00;;;;;;;26.00;45.04;97240.22;5044537;28;20048;-61
2022/08/25 11:00:06;;;;;;;6.25;3.28;;;;;;;26.10;44.85;97251.56;5045252;28;20060;-61
2022/08/25 11:03:02;;;;;;;5.65;3.50;;;;;;;25.93;45.31;97240.84;5044765;28;20095;-63
2022/08/25 11:05:48;;;;;;;6.57;3.30;;;;;;;25.96;44.99;97238.19;5044743;28;20075;-60
2022/08/25 11:08:20;;;;;;;5.45;3.53;;;;;;;26.02;45.36;97233.13;5044710;28;20048;-63
2022/08/25 11:10:58;;;;;;;5.82;3.67;;;;;;;26.13;45.21;97232.63;5035408;28;20826;-60
2022/08/25 11:13:37;;;;;;;6.05;3.38;;;;;;;26.03;46.03;97232.00;5045060;28;20106;-60
2022/08/25 11:16:15;;;;;;;5.15;3.70;;;;;;;26.14;45.51;97229.47;5045830;28;20194;-61
2022/08/25 11:19:18;;;;;;;6.07;3.70;;;;;;;26.10;45.69;97229.38;5042996;28;20398;-60
2022/08/25 11:21:57;;;;;;;7.13;4.05;;;;;;;26.27;45.28;97230.19;5041907;28;20504;-61
2022/08/25 11:24:50;;;;;;;5.82;3.72;;;;;;;26.39;44.65;97220.97;5042583;28;20041;-59
2022/08/25 11:27:31;;;;;;;4.82;3.05;;;;;;;26.48;43.25;97223.53;5028273;28;20044;-59
2022/08/25 11:30:07;;;;;;;4.95;3.03;;;;;;;26.33;43.16;97219.63;5042923;28;20056;-59
2022/08/25 11:32:36;;;;;;;5.40;3.25;;;;;;;26.26;44.09;97214.72;5044229;28;20098;-64
2022/08/25 11:35:10;;;;;;;7.05;3.85;;;;;;;26.64;43.93;97226.28;5041020;28;20041;-61
2022/08/25 11:37:59;;;;;;;6.15;3.58;;;;;;;26.74;43.55;97219.34;5042356;28;20106;-61
2022/08/25 11:40:51;;;;;;;6.85;3.92;;;;;;;26.82;43.49;97217.53;5042200;28;20316;-60
2022/08/25 11:43:26;;;;;;;5.35;3.58;;;;;;;26.87;43.59;97215.25;5037449;28;20091;-60
2022/08/25 11:46:24;;;;;;;6.57;3.47;;;;;;;26.78;43.46;97216.66;5038040;28;20073;-59
2022/08/25 11:49:03;;;;;;;4.90;3.45;;;;;;;26.78;43.40;97217.47;5040998;28;20041;-59
2022/08/25 11:51:33;;;;;;;7.10;3.63;;;;;;;26.49;44.30;97223.19;5035533;28;20459;-59
2022/08/25 11:54:27;;;;;;;7.20;3.83;;;;;;;26.43;44.24;97216.31;5042330;28;20041;-59
2022/08/25 11:56:56;;;;;;;5.88;3.70;;;;;;;26.62;44.23;97210.00;5041147;28;20292;-62
2022/08/25 11:59:52;;;;;;;6.15;3.42;;;;;;;26.95;43.44;97207.13;5033639;28;20142;-59
2022/08/25 12:02:40;;;;;;;7.10;3.70;;;;;;;27.12;43.01;97209.47;5041463;28;20415;-60
2022/08/25 12:05:28;;;;;;;5.63;3.80;;;;;;;27.44;42.35;97196.53;5034517;28;20047;-60
2022/08/25 12:11:42;;;;;;;4.13;2.53;;;;;;;27.64;40.10;97205.69;5038212;28;20045;-59